createdAt,value
2019-01-14T00:00:50.292Z,16.87
2019-01-14T00:03:14.747Z,20.90
2019-01-14T00:05:39.158Z,21.17
2019-01-14T00:08:03.569Z,14.07
2019-01-14T00:10:27.984Z,17.93
2019-01-14T00:12:52.408Z,14.13
2019-01-14T00:15:16.863Z,17.80
2019-01-14T00:17:41.394Z,15.30
2019-01-14T00:20:08.853Z,22.40
2019-01-14T00:22:33.253Z,17.47
2019-01-14T00:24:57.670Z,14.83
2019-01-14T00:27:22.081Z,22.93
2019-01-14T00:29:46.471Z,12.13
2019-01-14T00:32:10.893Z,27.03
2019-01-14T00:34:35.290Z,14.10
2019-01-14T00:36:59.729Z,17.87
2019-01-14T00:39:24.120Z,16.50
2019-01-14T00:41:48.524Z,20.40
2019-01-14T00:44:12.943Z,21.03
2019-01-14T00:46:37.348Z,15.63
2019-01-14T00:49:01.765Z,19.03
2019-01-14T00:51:26.168Z,16.53
2019-01-14T00:53:50.573Z,26.00
2019-01-14T00:56:14.989Z,24.90
2019-01-14T00:58:39.395Z,23.90
2019-01-14T01:01:03.961Z,22.67
2019-01-14T01:03:28.362Z,23.83
2019-01-14T01:05:52.745Z,15.83
2019-01-14T01:08:17.153Z,21.53
2019-01-14T01:10:41.534Z,17.23
2019-01-14T01:13:06.008Z,13.87
2019-01-14T01:15:30.411Z,19.43
2019-01-14T01:17:54.823Z,21.03
2019-01-14T01:20:20.054Z,17.13
2019-01-14T01:22:44.619Z,17.80
2019-01-14T01:25:10.643Z,23.83
2019-01-14T01:27:35.054Z,20.27
2019-01-14T01:29:59.487Z,18.53
2019-01-14T01:32:23.872Z,18.43
2019-01-14T01:34:48.301Z,16.10
2019-01-14T01:37:12.695Z,20.47
2019-01-14T01:39:37.086Z,18.97
2019-01-14T01:42:01.493Z,17.63
2019-01-14T01:44:25.894Z,24.73
2019-01-14T01:46:50.323Z,22.93
2019-01-14T01:49:14.735Z,22.97
2019-01-14T01:51:39.457Z,24.13
2019-01-14T01:54:04.243Z,18.30
2019-01-14T01:56:28.649Z,21.53
2019-01-14T01:58:53.082Z,26.87
2019-01-14T02:01:17.492Z,21.80
2019-01-14T02:03:41.892Z,16.70
2019-01-14T02:06:06.291Z,22.07
2019-01-14T02:08:30.699Z,26.90
2019-01-14T02:10:55.138Z,13.47
2019-01-14T02:13:19.542Z,23.13
2019-01-14T02:15:43.992Z,21.40
2019-01-14T02:18:08.417Z,21.37
2019-01-14T02:20:32.815Z,24.40
2019-01-14T02:22:57.255Z,21.13
2019-01-14T02:25:21.649Z,24.13
2019-01-14T02:27:46.054Z,21.73
2019-01-14T02:30:13.886Z,28.60
2019-01-14T02:32:38.272Z,25.93
2019-01-14T02:35:02.706Z,22.97
2019-01-14T02:37:27.092Z,22.20
2019-01-14T02:39:51.489Z,20.60
2019-01-14T02:42:15.912Z,16.60
2019-01-14T02:44:40.307Z,20.00
2019-01-14T02:47:04.944Z,18.00
2019-01-14T02:49:29.352Z,18.70
2019-01-14T02:51:53.782Z,16.53
2019-01-14T02:54:18.177Z,19.07
2019-01-14T02:56:42.556Z,16.80
2019-01-14T02:59:06.959Z,23.73
2019-01-14T03:01:31.358Z,15.93
2019-01-14T03:03:55.762Z,20.20
2019-01-14T03:06:20.168Z,17.70
2019-01-14T03:08:44.543Z,21.70
2019-01-14T03:11:08.969Z,22.97
2019-01-14T03:13:33.353Z,23.00
2019-01-14T03:15:57.761Z,19.00
2019-01-14T03:18:22.150Z,20.07
2019-01-14T03:20:46.531Z,18.80
2019-01-14T03:23:10.939Z,16.07
2019-01-14T03:25:35.342Z,13.83
2019-01-14T03:27:59.852Z,17.67
2019-01-14T03:30:24.240Z,7.67
2019-01-14T03:32:48.644Z,17.03
2019-01-14T03:35:13.485Z,20.93
2019-01-14T03:37:37.975Z,15.40
2019-01-14T03:40:02.359Z,15.80
2019-01-14T03:42:26.771Z,16.73
2019-01-14T03:44:51.175Z,14.87
2019-01-14T03:47:15.603Z,17.13
2019-01-14T03:49:40.003Z,16.43
2019-01-14T03:52:04.418Z,19.83
2019-01-14T03:54:29.552Z,18.13
2019-01-14T03:56:53.950Z,17.67
2019-01-14T03:59:18.338Z,18.87
2019-01-14T04:01:42.800Z,26.50
2019-01-14T04:04:07.255Z,12.43
2019-01-14T04:06:31.666Z,15.23
2019-01-14T04:08:56.083Z,18.90
2019-01-14T04:11:20.457Z,15.93
2019-01-14T04:13:44.898Z,17.87
2019-01-14T04:16:09.297Z,17.83
2019-01-14T04:18:33.701Z,15.87
2019-01-14T04:20:58.092Z,22.57
2019-01-14T04:23:22.511Z,20.43
2019-01-14T04:25:46.913Z,22.97
2019-01-14T04:28:11.314Z,22.97
2019-01-14T04:30:35.723Z,16.63
2019-01-14T04:33:00.105Z,14.07
2019-01-14T04:35:24.598Z,14.57
2019-01-14T04:37:49.082Z,11.43
2019-01-14T04:40:14.904Z,16.23
2019-01-14T04:42:39.304Z,14.27
2019-01-14T04:45:04.743Z,11.50
2019-01-14T04:47:29.163Z,18.53
2019-01-14T04:49:53.580Z,14.83
2019-01-14T04:52:17.980Z,19.53
2019-01-14T04:54:42.413Z,20.33
2019-01-14T04:57:06.814Z,14.40
2019-01-14T04:59:31.229Z,15.00
2019-01-14T05:01:55.627Z,11.23
2019-01-14T05:04:20.044Z,10.87
2019-01-14T05:06:44.434Z,12.83
2019-01-14T05:09:08.906Z,10.63
2019-01-14T05:11:33.325Z,9.43
2019-01-14T05:13:57.725Z,10.17
2019-01-14T05:16:22.151Z,12.50
2019-01-14T05:18:46.558Z,12.87
2019-01-14T05:21:11.010Z,10.43
2019-01-14T05:23:35.400Z,9.93
2019-01-14T05:25:59.788Z,11.00
2019-01-14T05:28:24.210Z,7.00
2019-01-14T05:30:48.602Z,13.27
2019-01-14T05:33:13.000Z,9.53
2019-01-14T05:35:37.399Z,11.83
2019-01-14T05:38:01.821Z,9.93
2019-01-14T05:40:26.578Z,11.27
2019-01-14T05:42:51.072Z,5.13
2019-01-14T05:45:15.600Z,9.70
2019-01-14T05:47:40.003Z,7.13
2019-01-14T05:50:07.967Z,13.23
2019-01-14T05:52:32.364Z,6.70
2019-01-14T05:54:56.781Z,8.20
2019-01-14T05:57:21.196Z,9.37
2019-01-14T05:59:45.579Z,13.93
2019-01-14T06:02:09.994Z,11.57
2019-01-14T06:04:34.391Z,10.93
2019-01-14T06:06:58.803Z,11.53
2019-01-14T06:09:23.211Z,13.03
2019-01-14T06:11:47.623Z,15.57
2019-01-14T06:14:12.036Z,10.17
2019-01-14T06:16:36.422Z,10.33
2019-01-14T06:19:00.856Z,10.30
2019-01-14T06:21:25.244Z,10.57
2019-01-14T06:23:49.636Z,8.57
2019-01-14T06:26:14.059Z,10.30
2019-01-14T06:28:38.476Z,10.83
2019-01-14T06:31:02.846Z,9.03
2019-01-14T06:33:27.260Z,15.77
2019-01-14T06:35:51.642Z,13.00
2019-01-14T06:38:16.119Z,7.80
2019-01-14T06:40:40.593Z,11.47
2019-01-14T06:43:05.076Z,13.17
2019-01-14T06:45:29.491Z,9.67
2019-01-14T06:47:53.875Z,11.07
2019-01-14T06:50:19.746Z,10.10
2019-01-14T06:52:44.156Z,9.27
2019-01-14T06:55:08.878Z,8.33
2019-01-14T06:57:33.290Z,12.03
2019-01-14T06:59:57.671Z,8.63
2019-01-14T07:02:22.102Z,11.57
2019-01-14T07:04:46.480Z,14.60
2019-01-14T07:07:10.877Z,11.47
2019-01-14T07:09:35.289Z,12.83
2019-01-14T07:11:59.857Z,10.13
2019-01-14T07:14:24.249Z,9.43
2019-01-14T07:16:48.625Z,9.97
2019-01-14T07:19:13.049Z,7.67
2019-01-14T07:21:37.427Z,9.53
2019-01-14T07:24:01.826Z,8.60
2019-01-14T07:26:26.236Z,13.90
2019-01-14T07:28:50.613Z,8.80
2019-01-14T07:31:15.049Z,13.27
2019-01-14T07:33:39.450Z,12.77
2019-01-14T07:36:04.080Z,10.70
2019-01-14T07:38:28.476Z,11.93
2019-01-14T07:40:52.871Z,12.40
2019-01-14T07:43:17.294Z,15.23
2019-01-14T07:45:41.682Z,12.47
2019-01-14T07:48:06.158Z,13.30
2019-01-14T07:50:30.565Z,14.90
2019-01-14T07:52:54.946Z,9.13
2019-01-14T07:55:19.356Z,10.87
2019-01-14T07:57:43.774Z,10.70
2019-01-14T08:00:22.846Z,15.83
2019-01-14T08:02:47.250Z,11.53
2019-01-14T08:05:11.772Z,15.57
2019-01-14T08:07:36.182Z,11.23
2019-01-14T08:10:00.575Z,9.57
2019-01-14T08:12:24.994Z,10.77
2019-01-14T08:14:49.391Z,13.57
2019-01-14T08:17:13.764Z,12.80
2019-01-14T08:19:38.186Z,11.73
2019-01-14T08:22:02.582Z,12.67
2019-01-14T08:24:26.999Z,13.40
2019-01-14T08:26:51.396Z,10.33
2019-01-14T08:29:15.811Z,5.90
2019-01-14T08:31:40.200Z,11.90
2019-01-14T08:34:04.588Z,10.57
2019-01-14T08:36:29.001Z,11.07
2019-01-14T08:38:53.390Z,14.97
2019-01-14T08:41:18.213Z,13.33
2019-01-14T08:43:43.161Z,13.03
2019-01-14T08:46:08.028Z,11.00
2019-01-14T08:48:32.460Z,11.83
2019-01-14T08:50:56.843Z,7.10
2019-01-14T08:53:21.240Z,8.03
2019-01-14T08:55:45.646Z,7.13
2019-01-14T08:58:10.021Z,7.53
2019-01-14T09:00:34.437Z,11.30
2019-01-14T09:02:58.823Z,8.63
2019-01-14T09:05:23.286Z,15.07
2019-01-14T09:07:47.688Z,9.60
2019-01-14T09:10:15.229Z,8.37
2019-01-14T09:12:39.621Z,9.27
2019-01-14T09:15:05.639Z,7.23
2019-01-14T09:17:30.065Z,12.03
2019-01-14T09:19:54.458Z,11.83
2019-01-14T09:22:18.867Z,6.33
2019-01-14T09:24:43.272Z,6.83
2019-01-14T09:27:07.659Z,6.57
2019-01-14T09:29:32.067Z,6.40
2019-01-14T09:31:57.327Z,8.23
2019-01-14T09:34:21.889Z,8.87
2019-01-14T09:36:46.297Z,11.80
2019-01-14T09:39:10.759Z,7.63
2019-01-14T09:41:35.170Z,9.20
2019-01-14T09:43:59.611Z,13.00
2019-01-14T09:46:24.000Z,11.07
2019-01-14T09:48:48.427Z,7.87
2019-01-14T09:51:12.908Z,15.00
2019-01-14T09:53:37.316Z,7.67
2019-01-14T09:56:01.708Z,8.03
2019-01-14T09:58:26.116Z,9.13
2019-01-14T10:00:50.493Z,9.70
2019-01-14T10:03:14.911Z,10.37
2019-01-14T10:05:39.314Z,11.90
2019-01-14T10:08:03.761Z,11.80
2019-01-14T10:10:28.165Z,8.80
2019-01-14T10:12:52.559Z,10.73
2019-01-14T10:15:19.168Z,11.87
2019-01-14T10:17:43.750Z,7.90
2019-01-14T10:20:09.789Z,6.40
2019-01-14T10:22:34.256Z,11.10
2019-01-14T10:24:58.648Z,6.50
2019-01-14T10:27:23.058Z,11.70
2019-01-14T10:29:47.453Z,8.03
2019-01-14T10:32:11.901Z,13.53
2019-01-14T10:34:36.272Z,8.27
2019-01-14T10:37:00.665Z,10.90
2019-01-14T10:39:25.099Z,10.13
2019-01-14T10:41:49.479Z,12.57
2019-01-14T10:44:13.916Z,10.77
2019-01-14T10:46:38.300Z,9.53
2019-01-14T10:49:06.628Z,15.67
2019-01-14T10:51:28.814Z,8.23
2019-01-14T10:53:53.202Z,11.53
2019-01-14T10:56:17.608Z,12.37
2019-01-14T10:58:42.037Z,11.10
2019-01-14T11:01:06.468Z,10.57
2019-01-14T11:03:30.873Z,10.47
2019-01-14T11:05:55.263Z,9.43
2019-01-14T11:08:19.675Z,7.70
2019-01-14T11:10:44.057Z,5.97
2019-01-14T11:13:08.468Z,5.50
2019-01-14T11:15:32.867Z,4.10
2019-01-14T11:17:57.290Z,5.63
2019-01-14T11:20:24.222Z,6.83
2019-01-14T11:22:48.845Z,5.67
2019-01-14T11:25:13.582Z,6.13
2019-01-14T11:27:38.043Z,6.10
2019-01-14T11:30:02.467Z,7.83
2019-01-14T11:32:26.862Z,4.13
2019-01-14T11:34:51.256Z,5.23
2019-01-14T11:37:15.772Z,7.30
2019-01-14T11:39:40.174Z,8.30
2019-01-14T11:42:04.587Z,8.00
2019-01-14T11:44:28.998Z,6.50
2019-01-14T11:46:53.446Z,14.40
2019-01-14T11:49:17.845Z,8.10
2019-01-14T11:51:42.264Z,5.93
2019-01-14T11:54:06.671Z,8.67
2019-01-14T11:56:31.087Z,8.77
2019-01-14T11:58:55.466Z,7.53
2019-01-14T12:01:19.851Z,7.60
2019-01-14T12:03:44.275Z,7.90
2019-01-14T12:06:08.658Z,5.17
2019-01-14T12:08:33.075Z,3.23
2019-01-14T12:10:57.461Z,8.73
2019-01-14T12:13:21.853Z,11.10
2019-01-14T12:15:46.263Z,5.87
2019-01-14T12:18:10.649Z,7.70
2019-01-14T12:20:35.056Z,6.87
2019-01-14T12:22:59.522Z,4.97
2019-01-14T12:25:23.939Z,8.77
2019-01-14T12:27:48.391Z,9.00
2019-01-14T12:30:18.740Z,9.47
2019-01-14T12:32:43.155Z,7.37
2019-01-14T12:35:07.607Z,7.40
2019-01-14T12:37:32.077Z,6.07
2019-01-14T12:39:56.465Z,6.80
2019-01-14T12:42:20.855Z,6.03
2019-01-14T12:44:45.258Z,6.33
2019-01-14T12:47:09.640Z,6.90
2019-01-14T12:49:34.050Z,5.33
2019-01-14T12:51:58.440Z,6.93
2019-01-14T12:54:22.836Z,6.93
2019-01-14T12:56:47.232Z,5.70
2019-01-14T12:59:11.612Z,10.57
2019-01-14T13:01:36.014Z,6.23
2019-01-14T13:04:00.395Z,8.43
2019-01-14T13:06:24.885Z,8.97
2019-01-14T13:08:49.238Z,10.07
2019-01-14T13:11:13.633Z,9.00
2019-01-14T13:13:38.051Z,5.63
2019-01-14T13:16:02.495Z,5.47
2019-01-14T13:18:26.928Z,4.90
2019-01-14T13:20:51.324Z,7.20
2019-01-14T13:23:15.733Z,7.00
2019-01-14T13:25:40.174Z,6.90
2019-01-14T13:28:04.994Z,8.10
2019-01-14T13:30:29.837Z,8.57
2019-01-14T13:32:54.762Z,8.67
2019-01-14T13:35:19.187Z,6.80
2019-01-14T13:37:43.649Z,5.27
2019-01-14T13:40:12.538Z,6.03
2019-01-14T13:42:36.951Z,7.63
2019-01-14T13:45:01.344Z,6.30
2019-01-14T13:47:26.119Z,10.03
2019-01-14T13:49:50.530Z,4.80
2019-01-14T13:52:14.929Z,4.00
2019-01-14T13:54:39.346Z,5.40
2019-01-14T13:57:03.718Z,5.47
2019-01-14T13:59:28.099Z,8.43
2019-01-14T14:01:52.516Z,8.40
2019-01-14T14:04:16.903Z,9.37
2019-01-14T14:06:41.323Z,6.80
2019-01-14T14:09:08.521Z,6.57
2019-01-14T14:11:32.908Z,5.53
2019-01-14T14:13:58.200Z,5.97
2019-01-14T14:16:22.590Z,6.57
2019-01-14T14:18:46.985Z,5.70
2019-01-14T14:21:11.383Z,8.13
2019-01-14T14:23:35.785Z,6.50
2019-01-14T14:26:00.280Z,5.07
2019-01-14T14:28:24.669Z,7.77
2019-01-14T14:30:49.044Z,6.07
2019-01-14T14:33:13.527Z,5.83
2019-01-14T14:35:37.984Z,7.73
2019-01-14T14:38:02.604Z,7.73
2019-01-14T14:40:26.995Z,7.17
2019-01-14T14:42:51.413Z,5.43
2019-01-14T14:45:16.289Z,6.83
2019-01-14T14:47:40.681Z,5.50
2019-01-14T14:50:11.150Z,7.30
2019-01-14T14:52:35.517Z,8.37
2019-01-14T14:54:59.910Z,4.83
2019-01-14T14:57:24.364Z,3.63
2019-01-14T14:59:48.779Z,10.67
2019-01-14T15:02:13.216Z,8.83
2019-01-14T15:04:37.614Z,7.07
2019-01-14T15:07:02.000Z,7.07
2019-01-14T15:09:31.622Z,4.70
2019-01-14T15:11:52.501Z,4.93
2019-01-14T15:14:16.933Z,7.50
2019-01-14T15:16:41.325Z,9.20
2019-01-14T15:19:05.783Z,6.50
2019-01-14T15:21:30.210Z,5.00
2019-01-14T15:23:54.596Z,10.50
2019-01-14T15:26:19.035Z,11.43
2019-01-14T15:28:43.445Z,7.57
2019-01-14T15:31:07.847Z,4.27
2019-01-14T15:33:32.267Z,8.00
2019-01-14T15:35:56.677Z,6.27
2019-01-14T15:38:21.092Z,9.47
2019-01-14T15:40:45.570Z,9.30
2019-01-14T15:43:10.024Z,5.40
2019-01-14T15:45:34.481Z,7.93
2019-01-14T15:47:58.864Z,9.23
2019-01-14T15:50:23.285Z,5.47
2019-01-14T15:52:47.676Z,8.33
2019-01-14T15:55:25.380Z,8.90
2019-01-14T15:57:51.469Z,10.60
2019-01-14T16:00:19.964Z,5.50
2019-01-14T16:02:44.629Z,6.73
2019-01-14T16:05:09.268Z,5.03
2019-01-14T16:07:33.713Z,4.33
2019-01-14T16:09:58.108Z,4.47
2019-01-14T16:12:22.501Z,4.93
2019-01-14T16:14:46.943Z,7.87
2019-01-14T16:17:11.338Z,11.10
2019-01-14T16:19:35.772Z,6.43
2019-01-14T16:22:00.185Z,4.57
2019-01-14T16:24:24.584Z,6.30
2019-01-14T16:26:49.008Z,6.67
2019-01-14T16:29:13.409Z,5.10
2019-01-14T16:31:37.831Z,5.97
2019-01-14T16:34:02.238Z,6.20
2019-01-14T16:36:26.658Z,7.37
2019-01-14T16:38:51.086Z,6.53
2019-01-14T16:41:15.503Z,8.73
2019-01-14T16:43:39.938Z,4.53
2019-01-14T16:46:04.389Z,7.97
2019-01-14T16:48:28.816Z,8.17
2019-01-14T16:50:53.248Z,4.33
2019-01-14T16:53:17.652Z,10.83
2019-01-14T16:55:43.750Z,6.07
2019-01-14T16:58:08.169Z,6.57
2019-01-14T17:00:32.558Z,7.70
2019-01-14T17:02:57.016Z,6.07
2019-01-14T17:05:24.163Z,5.83
2019-01-14T17:07:48.555Z,6.70
2019-01-14T17:10:14.910Z,5.27
2019-01-14T17:12:39.293Z,6.33
2019-01-14T17:15:04.358Z,4.77
2019-01-14T17:17:33.212Z,5.87
2019-01-14T17:19:57.712Z,7.50
2019-01-14T17:22:22.114Z,8.67
2019-01-14T17:24:46.559Z,7.60
2019-01-14T17:27:11.014Z,5.50
2019-01-14T17:29:35.435Z,6.87
2019-01-14T17:31:59.837Z,5.40
2019-01-14T17:34:24.258Z,5.47
2019-01-14T17:36:48.680Z,7.63
2019-01-14T17:39:13.083Z,10.13
2019-01-14T17:41:38.227Z,8.10
2019-01-14T17:44:02.608Z,7.00
2019-01-14T17:46:27.075Z,7.90
2019-01-14T17:48:51.490Z,6.93
2019-01-14T17:51:17.537Z,5.43
2019-01-14T17:53:41.957Z,6.47
2019-01-14T17:56:06.382Z,9.67
2019-01-14T17:58:30.817Z,12.73
2019-01-14T18:00:55.234Z,9.87
2019-01-14T18:03:19.647Z,7.00
2019-01-14T18:05:44.067Z,10.93
2019-01-14T18:08:08.471Z,6.93
2019-01-14T18:10:39.717Z,10.03
2019-01-14T18:12:59.003Z,10.07
2019-01-14T18:15:23.449Z,7.90
2019-01-14T18:17:47.842Z,6.33
2019-01-14T18:20:14.899Z,10.43
2019-01-14T18:22:39.335Z,12.73
2019-01-14T18:25:04.792Z,8.80
2019-01-14T18:27:29.213Z,9.87
2019-01-14T18:29:53.614Z,8.43
2019-01-14T18:32:18.045Z,8.20
2019-01-14T18:34:42.470Z,10.17
2019-01-14T18:37:06.855Z,12.13
2019-01-14T18:39:31.301Z,9.07
2019-01-14T18:41:55.693Z,9.20
2019-01-14T18:44:20.091Z,5.60
2019-01-14T18:46:44.542Z,10.00
2019-01-14T18:49:08.938Z,4.27
2019-01-14T18:51:33.380Z,9.57
2019-01-14T18:53:57.783Z,13.13
2019-01-14T18:56:22.239Z,8.73
2019-01-14T18:58:46.645Z,8.63
2019-01-14T19:01:11.047Z,8.50
2019-01-14T19:03:35.484Z,13.27
2019-01-14T19:05:59.900Z,8.03
2019-01-14T19:08:24.347Z,7.90
2019-01-14T19:10:54.303Z,8.57
2019-01-14T19:13:14.860Z,10.53
2019-01-14T19:15:39.361Z,11.37
2019-01-14T19:18:03.841Z,10.23
2019-01-14T19:20:28.431Z,8.87
2019-01-14T19:22:52.892Z,7.83
2019-01-14T19:25:17.304Z,8.27
2019-01-14T19:27:41.730Z,6.87
2019-01-14T19:30:09.194Z,11.80
2019-01-14T19:32:38.322Z,8.80
2019-01-14T19:34:59.687Z,10.73
2019-01-14T19:37:24.086Z,10.80
2019-01-14T19:39:48.493Z,7.57
2019-01-14T19:42:12.941Z,8.63
2019-01-14T19:44:37.338Z,8.93
2019-01-14T19:47:01.755Z,7.03
2019-01-14T19:49:26.199Z,4.77
2019-01-14T19:51:50.578Z,9.23
2019-01-14T19:54:14.988Z,11.20
2019-01-14T19:56:39.510Z,15.17
2019-01-14T19:59:04.205Z,8.27
2019-01-14T20:01:28.624Z,11.10
2019-01-14T20:03:53.025Z,9.20
2019-01-14T20:06:17.527Z,6.90
2019-01-14T20:08:41.961Z,8.80
2019-01-14T20:11:09.375Z,10.90
2019-01-14T20:13:32.525Z,11.87
2019-01-14T20:15:56.968Z,10.80
2019-01-14T20:18:21.473Z,10.43
2019-01-14T20:20:45.883Z,8.10
2019-01-14T20:23:10.305Z,8.03
2019-01-14T20:25:34.721Z,8.90
2019-01-14T20:27:59.111Z,9.30
2019-01-14T20:30:23.775Z,6.43
2019-01-14T20:32:48.176Z,6.73
2019-01-14T20:35:12.637Z,8.33
2019-01-14T20:37:37.042Z,9.47
2019-01-14T20:40:01.454Z,7.03
2019-01-14T20:42:25.901Z,7.87
2019-01-14T20:44:50.340Z,11.70
2019-01-14T20:47:14.748Z,8.07
2019-01-14T20:49:39.163Z,5.93
2019-01-14T20:52:03.583Z,11.10
2019-01-14T20:54:28.023Z,11.73
2019-01-14T20:56:52.415Z,6.30
2019-01-14T20:59:16.830Z,8.97
2019-01-14T21:01:41.274Z,11.97
2019-01-14T21:04:05.678Z,9.27
2019-01-14T21:06:30.137Z,9.37
2019-01-14T21:08:54.558Z,7.00
2019-01-14T21:11:23.920Z,7.50
2019-01-14T21:13:45.179Z,9.60
2019-01-14T21:16:09.566Z,7.97
2019-01-14T21:18:34.029Z,13.07
2019-01-14T21:20:58.425Z,12.10
2019-01-14T21:23:22.842Z,12.40
2019-01-14T21:25:47.263Z,7.47
2019-01-14T21:28:11.685Z,10.57
2019-01-14T21:30:36.113Z,11.23
2019-01-14T21:33:00.529Z,7.50
2019-01-14T21:35:24.985Z,9.10
2019-01-14T21:37:50.110Z,5.23
2019-01-14T21:40:14.947Z,9.53
2019-01-14T21:42:39.383Z,7.93
2019-01-14T21:45:04.914Z,10.40
2019-01-14T21:47:32.697Z,8.83
2019-01-14T21:49:55.480Z,6.73
2019-01-14T21:52:19.886Z,10.33
2019-01-14T21:54:44.294Z,9.33
2019-01-14T21:57:08.724Z,8.40
2019-01-14T21:59:33.115Z,7.83
2019-01-14T22:01:57.512Z,9.03
2019-01-14T22:04:21.939Z,12.07
2019-01-14T22:06:46.350Z,8.10
2019-01-14T22:09:10.943Z,12.30
2019-01-14T22:11:38.756Z,17.07
2019-01-14T22:14:01.525Z,8.07
2019-01-14T22:16:25.929Z,9.33
2019-01-14T22:18:50.333Z,10.97
2019-01-14T22:21:14.747Z,8.30
2019-01-14T22:23:39.142Z,10.13
2019-01-14T22:26:03.536Z,15.47
2019-01-14T22:28:27.960Z,9.53
2019-01-14T22:30:52.352Z,8.13
2019-01-14T22:33:16.793Z,11.40
2019-01-14T22:35:41.185Z,12.03
2019-01-14T22:38:05.597Z,14.97
2019-01-14T22:40:30.026Z,8.43
2019-01-14T22:42:54.500Z,14.50
2019-01-14T22:45:18.907Z,7.87
2019-01-14T22:47:43.292Z,5.63
2019-01-14T22:50:16.261Z,9.90
2019-01-14T22:52:40.661Z,9.30
2019-01-14T22:55:07.212Z,11.10
2019-01-14T22:57:31.624Z,9.00
2019-01-14T22:59:56.016Z,13.50
2019-01-14T23:02:20.431Z,11.67
2019-01-14T23:04:44.858Z,10.70
2019-01-14T23:07:09.239Z,10.27
2019-01-14T23:09:33.684Z,11.60
2019-01-14T23:11:58.065Z,11.67
2019-01-14T23:14:22.453Z,9.93
2019-01-14T23:16:46.875Z,12.90
2019-01-14T23:19:11.342Z,9.33
2019-01-14T23:21:35.769Z,11.83
2019-01-14T23:24:00.224Z,12.33
2019-01-14T23:26:24.621Z,13.07
2019-01-14T23:28:49.048Z,13.93
2019-01-14T23:31:13.559Z,14.77
2019-01-14T23:33:37.973Z,10.37
2019-01-14T23:36:02.372Z,6.57
2019-01-14T23:38:26.781Z,11.53
2019-01-14T23:40:51.183Z,12.90
2019-01-14T23:43:15.581Z,9.07
2019-01-14T23:45:39.981Z,6.50
2019-01-14T23:48:04.610Z,15.30
2019-01-14T23:50:29.047Z,11.03
2019-01-14T23:52:53.473Z,9.37
2019-01-14T23:55:17.889Z,15.67
2019-01-14T23:57:42.306Z,12.53
